PADK/ADK METAR and TAF weather

Enter ICAO airport designator
Station Type Date Time Source
PADK METAR 2018/12/10 02:56 UTC NOAA

PADK 100256Z AUTO 24006KT 10SM OVC014 02/00 A2878 RMK AO2 SLP745 60000 T00220000 55009 FZRANO


Station Type Date Time Source
PADK Decoded METAR 2018/12/10 02:56 UTC NOAA

Adak Island, Adak Airport, AK, United States (PADK) 51-52-40N 176-38-45W 4M
Dec 09, 2018 - 09:56 PM EST / 2018.12.10 0256 UTC
Wind: from the WSW (240 degrees) at 7 MPH (6 KT):0
Visibility: 10 mile(s):0
Sky conditions: overcast
Temperature: 36.0 F (2.2 C)
Dew Point: 32.0 F (0.0 C)
Relative Humidity: 85%
Pressure (altimeter): 28.78 in. Hg (974 hPa)
Pressure tendency: 0.03 inches (0.9 hPa) lower than three hours ago
ob: PADK 100256Z AUTO 24006KT 10SM OVC014 02/00 A2878 RMK AO2 SLP745 60000 T00220000 55009 FZRANO
cycle: 3

Station Type Date Time Source
PADK TAF 2007/04/07 12:54 UTC NOAA

TAF PADK 070404 33010G15KT 9999 FEW025 BKN030 OVC050 QNH2900INS T03/00Z TM01/18Z COR 1205 LAST NO
AMDS AFT 0712;


Example: see airport list